Hovedside
METAR-TAF:

METAR-TAF

Lufthavner :

Kangerlussuaq lufthavn

Kangerlussuaq, Grønland

breddegrad: 67-01N, lengdegrad: 050-42W, høyde over havet: 50 m

Gjeldene værobservasjon

Denne rapporten ble laget for 35 minutter siden, klokken 09:50 UTC
Vind 9 kt fra Nordøst
Temperatur -25°C
Luftfuktighet 76%
Trykk 1002 hPa
Sikt 10 km eller mer

METAR: BGSF 240950Z AUTO 05009KT 9999NDV OVC049/// M25/M28 Q1002

Tid: 07:25 (10:25 UTC)

Varsel

Denne rapporten ble laget for 5 timer og 28 minutter siden, klokken 04:57 UTC
Varsel gyldig fra 24. klokken 06 UTC til 24. klokken 24 UTC
Vind 5 kt fra Øst-nordøst
Sikt 10 km eller mer
Spredte skyer i en høyde av 3500 ft
Brutte skyer i en høyde av 6000 ft
Midlertidig
fra 24. klokken 06 UTC til 24. klokken 14 UTC
Sikt: 6000 m
Brutte skyer i en høyde av 3500 ft
lett snø

TAF: BGSF 240457Z 2406/2424 07005KT 9999 SCT035 BKN060 TEMPO 2406/2414 6000 -SN BKN035

Værobservasjoner og værvarsel for over 4000 flyplasser (METAR- og TAF-rapporter).

Tilgjengelige stasjoner er representert av de røde og gule prikkene på kartet.

Hold musepekeren over prikken for å se navnet på stasjonen.

Klikk så for å se værobservasjoner og -varsler.

For å forandre kartet kan du klikke på den grønne knappen med svart kryss for å zoome inn, på den grønne knappen med strek for å zoome ut, eller på de grønne pilene for å se tilstøtende kart.


METAR-TAF: